Hébergeur de fichiers indépendant

Sorbiers Le bessat (grosse descente).gpx

À propos

Type de fichier
Fichier GPX de 50 Ko (application/xml)
Confidentialité
Fichier public, envoyé le 12 avril 2012 à 13:20, depuis l'adresse IP 83.158.x.x (France)
Sécurité
Ne contient aucun Virus ou Malware connus - Dernière vérification: hier
Statistiques
La présente page de téléchargement a été vue 529 fois depuis l'envoi du fichier
Page de téléchargement

Aperçu du fichier


<?xml version="1.0" encoding="UTF-8"?>
<gpx
 version="1.1"
creator="GPSBabel - http://www.gpsbabel.org"
xmlns:xsi="http://www.w3.org/2001/XMLSchema-instance"
xmlns="http://www.topografix.com/GPX/1/1"
xsi:schemaLocation="http://www.topografix.com/GPX/1/0 http://www.topografix.com/GPX/1/0/gpx.xsd http://www.topografix.com/GPX/1/0 http://www.topografix.com/GPX/1/0/gpx.xsd http://www.topografix.com/GPX/1/0 http://www.topografix.com/GPX/1/0/gpx.xsd http://www.topografix.com/GPX/1/0 http://www.topografix.com/GPX/1/0/gpx.xsd http://www.topografix.com/GPX/1/0 http://www.topografix.com/GPX/1/0/gpx.xsd http://www.topografix.com/GPX/1/0 http://www.topografix.com/GPX/1/0/gpx.xsd http://www.topografix.com/GPX/1/0 http://www.topografix.com/GPX/1/0/gpx.xsd http://www.topografix.com/GPX/1/0 http://www.topografix.com/GPX/1/0/gpx.xsd http://www.topografix.com/GPX/1/0 http://www.topografix.com/GPX/1/0/gpx.xsd http://www.topografix.com/GPX/1/0 http://www.topografix.com/GPX/1/0/gpx.xsd http://www.garmin.com/xmlschemas/GpxExtensions/v3 http://www.garmin.com/xmlschemas/GpxExtensions/v3/GpxExtensionsv3.xsd http://www.topografix.com/GPX/1/1 http://www.topografix.com/GPX/1/1/gpx.xsd">
<metadata>
<time>2010-11-08T01:34:00Z</time>
<bounds minlat="45.370331700" minlon="4.442722800" maxlat="45.478104000" maxlon="4.512933600"/>
</metadata>
<wpt lat="45.456082800" lon="4.501218800">
<time>2008-10-26T15:10:35Z</time>
  <name>Piscine à Vagues</name>
  <cmt>Route et chemin</cmt>
  <desc>Route et chemin</desc>
  <sym>Flag, Green</sym>
  <extensions>
    <gpxx:WaypointExtension xmlns:gpxx="http://www.garmin.com/xmlschemas/GpxExtensions/v2" xmlns:xsi="http://www.w3.org/2001/XMLSchema-instance" xsi:schemaLocation="http://www.garmin.com/xmlschemas/GpxExtensions/v2 http://www.garmin.com/xmlschemas/GpxExtensions/v2/GpxExtensionsv2.xsd">
      <gpxx:DisplayMode>SymbolAndName</gpxx:DisplayMode>
    </gpxx:WaypointExtension>
  </extensions>
</wpt>
<trk>
  <name>(c) UtagawaVTT.com</name>
<trkseg>
<extensions>
      <gpxx:TrackExtension xmlns:gpxx="http://www.garmin.com/xmlschemas/GpxExtensions/v3">
        <gpxx:DisplayColor>Cyan</gpxx:DisplayColor>










      </gpxx:TrackExtension>










    </extensions>
<trkpt lat="45.477906500" lon="4.443265800">
  <ele>499.061523</ele>
<time>2008-08-09T07:46:51Z</time>
</trkpt>
<trkpt lat="45.477448600" lon="4.444475100">
  <ele>500.022949</ele>
<time>2008-08-09T07:47:09Z</time>
</trkpt>
<trkpt lat="45.477441300" lon="4.446852700">
  <ele>509.155396</ele>
<time>2008-08-09T07:47:46Z</time>
</trkpt>
<trkpt lat="45.477054900" lon="4.447942500">
  <ele>509.155396</ele>
<time>2008-08-09T07:48:06Z</time>
</trkpt>
<trkpt lat="45.476836800" lon="4.449449200">
  <ele>509.636108</ele>
<time>2008-08-09T07:48:28Z</time>
</trkpt>
<trkpt lat="45.476844000" lon="4.450384100">
  <ele>513.000732</ele>
<time>2008-08-09T07:48:42Z</time>
</trkpt>
<trkpt lat="45.477515100" lon="4.453189700">
  <ele>531.265747</ele>
<time>2008-08-09T07:49:51Z</time>
</trkpt>
<trkpt lat="45.477574200" lon="4.454327700">
  <ele>540.878906</ele>
<time>2008-08-09T07:50:25Z</time>
</trkpt>
<trkpt lat="45.477458800" lon="4.454750300">
  <ele>543.282104</ele>
<time>2008-08-09T07:50:38Z</time>
</trkpt>
<trkpt lat="45.476560800" lon="4.455448200">
  <ele>558.663330</ele>
<time>2008-08-09T07:51:29Z</time>
</trkpt>
<trkpt lat="45.476051100" lon="4.455943400">
  <ele>564.911865</ele>
<time>2008-08-09T07:51:54Z</time>
</trkpt>
<trkpt lat="45.474306000" lon="4.457391500">
  <ele>578.851074</ele>
<time>2008-08-09T07:53:18Z</time>
</trkpt>
<trkpt lat="45.474011700" lon="4.457970300">
  <ele>580.773682</ele>
<time>2008-08-09T07:53:35Z</time>
</trkpt>
<trkpt lat="45.472879300" lon="4.460236100">
  <ele>585.580078</ele>
<time>2008-08-09T07:54:24Z</time>
</trkpt>
<trkpt lat="45.472516400" lon="4.460672800">
  <ele>584.618897</ele>
<time>2008-08-09T07:54:35Z</time>
</trkpt>
<trkpt lat="45.472319200" lon="4.461246100">
  <ele>586.060791</ele>
<time>2008-08-09T07:54:46Z</time>
</trkpt>
<trkpt lat="45.472060400" lon="4.463978300">
  <ele>594.232178</ele>
<time>2008-08-09T07:55:33Z</time>
</trkpt>
<trkpt lat="45.471821100" lon="4.464665700">
  <ele>596.154785</ele>
<time>2008-08-09T07:55:47Z</time>
</trkpt>
<trkpt lat="45.471572200" lon="4.465301800">
  <ele>595.193359</ele>
<time>2008-08-09T07:55:58Z</time>
</trkpt>
<trkpt lat="45.471460300" lon="4.465604300">
  <ele>591.828857</ele>
<time>2008-08-09T07:56:02Z</time>
</trkpt>
<trkpt lat="45.471338100" lon="4.465986300">
  <ele>588.464356</ele>
<time>2008-08-09T07:56:06Z</time>
</trkpt>
<trkpt lat="45.471042100" lon="4.466711200">
  <ele>578.851074</ele>
<time>2008-08-09T07:56:12Z</time>
</trkpt>
<trkpt lat="45.471098300" lon="4.467670400">
  <ele>573.083252</ele>
<time>2008-08-09T07:56:20Z</time>
</trkpt>
<trkpt lat="45.470744500" lon="4.468431500">
  <ele>560.105225</ele>
<time>2008-08-09T07:56:27Z</time>
</trkpt>
<trkpt lat="45.470386600" lon="4.468893800">
  <ele>553.856690</ele>
<time>2008-08-09T07:56:31Z</time>
</trkpt>
<trkpt lat="45.469138200" lon="4.469523800">
  <ele>545.204834</ele>
<time>2008-08-09T07:56:43Z</time>
</trkpt>
<trkpt lat="45.467818800" lon="4.472207000">
  <ele>521.652588</ele>
<time>2008-08-09T07:57:14Z</time>
</trkpt>
<trkpt lat="45.467724500" lon="4.472978900">
  <ele>515.884644</ele>
<time>2008-08-09T07:57:23Z</time>
</trkpt>
<trkpt lat="45.467234900" lon="4.474447200">
  <ele>504.348877</ele>
<time>2008-08-09T07:57:39Z</time>
</trkpt>
<trkpt lat="45.467181200" lon="4.477457900">
  <ele>483.199829</ele>
<time>2008-08-09T07:58:07Z</time>
</trkpt>
<trkpt lat="45.466788900" lon="4.477938600">
  <ele>480.796631</ele>
<time>2008-08-09T07:58:20Z</time>
</trkpt>
<trkpt lat="45.466456000" lon="4.478357200">
  <ele>474.547974</ele>
<time>2008-08-09T07:58:26Z</time>
</trkpt>
<trkpt lat="45.464968200" lon="4.479735800">
  <ele>463.973389</ele>
<time>2008-08-09T07:58:46Z</time>
</trkpt>
<trkpt lat="45.464489000" lon="4.480971000">
  <ele>454.840820</ele>
<time>2008-08-09T07:58:56Z</time>
</trkpt>
<trkpt lat="45.464554500" lon="4.482026700">
  <ele>446.189087</ele>
<time>2008-08-09T07:59:03Z</time>
</trkpt>
<trkpt lat="45.464209000" lon="4.483376000">
  <ele>438.979126</ele>
<time>2008-08-09T07:59:13Z</time>
</trkpt>
<trkpt lat="45.464181100" lon="4.483809000">
  <ele>432.730713</ele>
<time>2008-08-09T07:59:16Z</time>
</trkpt>
<trkpt lat="45.464322600" lon="4.484717800">
  <ele>427.443359</ele>
<time>2008-08-09T07:59:22Z</time>
</trkpt>
<trkpt lat="45.464712600" lon="4.485512800">
  <ele>420.714111</ele>
<time>2008-08-09T07:59:28Z</time>
</trkpt>
<trkpt lat="45.464670800" lon="4.485836800">
  <ele>416.388184</ele>
<time>2008-08-09T07:59:32Z</time>
</trkpt>
<trkpt lat="45.463440400" lon="4.486770600">
  <ele>407.255615</ele>
<time>2008-08-09T07:59:54Z</time>
</trkpt>
<trkpt lat="45.463432100" lon="4.486938600">
  <ele>404.371704</ele>
<time>2008-08-09T08:00:02Z</time>
</trkpt>
<trkpt lat="45.463442800" lon="4.488323400">
  <ele>401.487793</ele>
<time>2008-08-09T08:00:16Z</time>
</trkpt>
<trkpt lat="45.463838500" lon="4.490916500">
  <ele>390.913208</ele>
<time>2008-08-09T08:00:43Z</time>
</trkpt>
<trkpt lat="45.464330100" lon="4.491814000">
  <ele>388.990601</ele>
<time>2008-08-09T08:01:16Z</time>
</trkpt>
<trkpt lat="45.464305600" lon="4.492292000">
  <ele>385.145386</ele>
<time>2008-08-09T08:01:22Z</time>
</trkpt>
<trkpt lat="45.464050800" lon="4.492968200">
  <ele>384.664795</ele>
<time>2008-08-09T08:01:29Z</time>
</trkpt>
<trkpt lat="45.463557000" lon="4.493708800">
  <ele>389.951904</ele>
<time>2008-08-09T08:01:41Z</time>
</trkpt>
<trkpt lat="45.463056600" lon="4.494124900">
  <ele>389.471191</ele>
<time>2008-08-09T08:01:52Z</time>
</trkpt>
<trkpt lat="45.464097600" lon="4.497108500">
  <ele>383.703247</ele>
<time>2008-08-09T08:02:26Z</time>
</trkpt>
<trkpt lat="45.464302100" lon="4.499163000">
  <ele>392.835938</ele>
<time>2008-08-09T08:02:57Z</time>
</trkpt>
<trkpt lat="45.464155300" lon="4.499214600">
  <ele>395.239136</ele>
<time>2008-08-09T08:03:02Z</time>
</trkpt>
<trkpt lat="45.463220900" lon="4.498558000">
  <ele>400.526489</ele>
<time>2008-08-09T08:03:33Z</time>
</trkpt>
<trkpt lat="45.463681900" lon="4.499612200">
  <ele>404.852295</ele>
<time>2008-08-09T08:03:56Z</time>
</trkpt>
<trkpt lat="45.463680600" lon="4.500295900">
  <ele>411.100952</ele>
<time>2008-08-09T08:04:13Z</time>
</trkpt>
<trkpt lat="45.463442000" lon="4.500774200">
  <ele>413.984863</ele>
<time>2008-08-09T08:04:28Z</time>
</trkpt>
<trkpt lat="45.463139600" lon="4.500722300">
  <ele>414.946167</ele>
<time>2008-08-09T08:04:38Z</time>
</trkpt>
<trkpt lat="45.462727200" lon="4.500328200">
  <ele>415.426880</ele>
<time>2008-08-09T08:04:52Z</time>
</trkpt>
<trkpt lat="45.462331400" lon="4.500298600">
  <ele>415.907471</ele>
<time>2008-08-09T08:05:11Z</time>
</trkpt>
<trkpt lat="45.461942300" lon="4.499925800">
  <ele>419.272217</ele>
<time>2008-08-09T08:05:24Z</time>
</trkpt>
<trkpt lat="45.460672000" lon="4.499518700">
  <ele>426.962769</ele>
<time>2008-08-09T08:05:59Z</time>
</trkpt>
<trkpt lat="45.458707900" lon="4.499507000">
  <ele>437.537109</ele>
<time>2008-08-09T08:08:21Z</time>
</trkpt>
<trkpt lat="45.457716800" lon="4.499432900">
  <ele>438.017822</ele>
<time>2008-08-09T08:08:42Z</time>
</trkpt>
<trkpt lat="45.456589800" lon="4.499857700">
  <ele>421.675415</ele>
<time>2008-08-09T08:09:00Z</time>
</trkpt>
<trkpt lat="45.456189700" lon="4.499441000">
  <ele>425.040161</ele>
<time>2008-08-09T08:09:09Z</time>
</trkpt>
<trkpt lat="45.454572700" lon="4.497545400">
  <ele>430.327271</ele>
<time>2008-08-09T08:09:49Z</time>
</trkpt>
<trkpt lat="45.454111600" lon="4.497153100">
  <ele>433.691894</ele>
<time>2008-08-09T08:10:04Z</time>
</trkpt>
<trkpt lat="45.453670300" lon="4.497079500">
  <ele>437.056519</ele>
<time>2008-08-09T08:10:17Z</time>
</trkpt>
<trkpt lat="45.453315500" lon="4.497339000">
  <ele>438.017822</ele>
<time>2008-08-09T08:10:28Z</time>
</trkpt>
<trkpt lat="45.453328100" lon="4.498046100">
  <ele>441.382446</ele>
<time>2008-08-09T08:10:41Z</time>
</trkpt>
<trkpt lat="45.453887600" lon="4.498971900">
  <ele>441.863159</ele>
<time>2008-08-09T08:11:00Z</time>
</trkpt>
<trkpt lat="45.454344800" lon="4.500196400">
  <ele>441.863159</ele>
<time>2008-08-09T08:11:21Z</time>
</trkpt>
<trkpt lat="45.453147800" lon="4.500803700">
  <ele>451.476318</ele>
<time>2008-08-09T08:11:59Z</time>
</trkpt>
<trkpt lat="45.452204000" lon="4.500787300">
  <ele>470.221924</ele>
<time>2008-08-09T08:13:04Z</time>
</trkpt>
<trkpt lat="45.451393100" lon="4.500460000">
  <ele>482.238525</ele>
<time>2008-08-09T08:14:46Z</time>
</trkpt>
<trkpt lat="45.450688900" lon="4.500586500">
  <ele>488.967773</ele>
<time>2008-08-09T08:15:15Z</time>
</trkpt>
<trkpt lat="45.448681900" lon="4.500182300">
  <ele>518.287842</ele>
<time>2008-08-09T08:17:10Z</time>
</trkpt>
<trkpt lat="45.447891900" lon="4.500309100">
  <ele>529.823731</ele>
<time>2008-08-09T08:18:23Z</time>
</trkpt>
<trkpt lat="45.447572800" lon="4.500317000">
  <ele>530.785156</ele>
<time>2008-08-09T08:18:37Z</time>
</trkpt>
<trkpt lat="45.446684400" lon="4.499995700">
  <ele>546.646851</ele>
<time>2008-08-09T08:19:34Z</time>
</trkpt>
<trkpt lat="45.446392300" lon="4.499894600">
  <ele>550.011475</ele>
<time>2008-08-09T08:19:48Z</time>
</trkpt>
<trkpt lat="45.445318700" lon="4.500375400">
  <ele>554.817871</ele>
<time>2008-08-09T08:20:28Z</time>
</trkpt>
<trkpt lat="45.442973100" lon="4.500995600">
  <ele>570.679688</ele>
<time>2008-08-09T08:21:34Z</time>
</trkpt>
<trkpt lat="45.442503500" lon="4.501301300">
  <ele>575.486328</ele>
<time>2008-08-09T08:21:51Z</time>
</trkpt>
<trkpt lat="45.442104200" lon="4.502153600">
  <ele>584.618897</ele>
<time>2008-08-09T08:22:21Z</time>
</trkpt>
<trkpt lat="45.441797000" lon="4.503354800">
  <ele>593.751465</ele>
<time>2008-08-09T08:22:57Z</time>
</trkpt>
<trkpt lat="45.440890000" lon="4.503708700">
  <ele>607.690674</ele>
<time>2008-08-09T08:23:43Z</time>
</trkpt>
<trkpt lat="45.440591400" lon="4.503768700">
  <ele>610.093750</ele>
<time>2008-08-09T08:23:57Z</time>
</trkpt>
<trkpt lat="45.438573300" lon="4.502529300">
  <ele>634.607422</ele>
<time>2008-08-09T08:25:32Z</time>
</trkpt>
<trkpt lat="45.437746500" lon="4.501678600">
  <ele>649.027100</ele>
<time>2008-08-09T08:26:20Z</time>
</trkpt>
<trkpt lat="45.437276100" lon="4.501245300">
  <ele>654.314697</ele>
<time>2008-08-09T08:26:46Z</time>
</trkpt>
<trkpt lat="45.436824100" lon="4.499909500">
  <ele>666.811523</ele>
<time>2008-08-09T08:27:34Z</time>
</trkpt>
<trkpt lat="45.436537600" lon="4.498811300">
  <ele>676.424805</ele>
<time>2008-08-09T08:28:10Z</time>
</trkpt>
<trkpt lat="45.436044800" lon="4.497791900">
  <ele>683.153809</ele>
<time>2008-08-09T08:28:52Z</time>
</trkpt>
<trkpt lat="45.435721700" lon="4.497408600">
  <ele>688.922119</ele>
<time>2008-08-09T08:29:12Z</time>
</trkpt>
<trkpt lat="45.435346800" lon="4.497260400">
  <ele>693.247803</ele>
<time>2008-08-09T08:29:30Z</time>
</trkpt>
<trkpt lat="45.434619300" lon="4.497614300">
  <ele>701.419190</ele>
<time>2008-08-09T08:30:04Z</time>
</trkpt>
<trkpt lat="45.434396500" lon="4.497910900">
  <ele>701.899902</ele>
<time>2008-08-09T08:30:16Z</time>
</trkpt>
<trkpt lat="45.433994800" lon="4.498787000">
  <ele>695.170410</ele>
<time>2008-08-09T08:30:32Z</time>
</trkpt>
<trkpt lat="45.433769500" lon="4.499041900">
  <ele>696.612549</ele>
<time>2008-08-09T08:30:36Z</time>
</trkpt>
<trkpt lat="45.433073800" lon="4.499272500">
  <ele>701.419190</ele>
<time>2008-08-09T08:30:48Z</time>
</trkpt>
<trkpt lat="45.432127800" lon="4.499908100">
  <ele>709.109619</ele>
<time>2008-08-09T08:31:17Z</time>
</trkpt>
<trkpt lat="45.431630600" lon="4.499723000">
  <ele>713.916016</ele>
<time>2008-08-09T08:31:34Z</time>
</trkpt>
<trkpt lat="45.430684900" lon="4.498818000">
  <ele>722.568115</ele>
<time>2008-08-09T08:32:14Z</time>
</trkpt>
<trkpt lat="45.429910700" lon="4.498417100">
  <ele>731.700440</ele>
<time>2008-08-09T08:32:47Z</time>
</trkpt>
<trkpt lat="45.429715200" lon="4.498315900">
  <ele>733.142578</ele>
<time>2008-08-09T08:32:59Z</time>
</trkpt>
<trkpt lat="45.426939900" lon="4.497408100">
  <ele>761.020752</ele>
<time>2008-08-09T08:35:11Z</time>
</trkpt>
<trkpt lat="45.425258600" lon="4.496927700">
  <ele>774.959961</ele>
<time>2008-08-09T08:36:18Z</time>
</trkpt>
<trkpt lat="45.424605300" lon="4.497065500">
  <ele>771.114746</ele>
<time>2008-08-09T08:36:32Z</time>
</trkpt>
<trkpt lat="45.424041700" lon="4.496965300">
  <ele>767.750000</ele>
<time>2008-08-09T08:36:42Z</time>
</trkpt>
<trkpt lat="45.423681700" lon="4.496969200">
  <ele>764.866211</ele>
<time>2008-08-09T08:36:48Z</time>
</trkpt>
<trkpt lat="45.423939200" lon="4.498411500">
  <ele>772.556641</ele>
<time>2008-08-09T08:37:14Z</time>
</trkpt>
<trkpt lat="45.424008000" lon="4.498625900">
  <ele>770.634033</ele>
<time>2008-08-09T08:37:20Z</time>
</trkpt>
<trkpt lat="45.425253800" lon="4.499424700">
  <ele>742.275147</ele>
<time>2008-08-09T08:37:44Z</time>
</trkpt>
<trkpt lat="45.425835600" lon="4.499608400">
  <ele>744.678223</ele>
<time>2008-08-09T08:37:50Z</time>
</trkpt>
<trkpt lat="45.426060100" lon="4.499708500">
  <ele>743.236328</ele>
<time>2008-08-09T08:37:53Z</time>
</trkpt>
<trkpt lat="45.426363800" lon="4.500421700">
  <ele>739.871826</ele>
<time>2008-08-09T08:38:00Z</time>
</trkpt>
<trkpt lat="45.426569100" lon="4.500676600">
  <ele>741.794434</ele>
<time>2008-08-09T08:38:03Z</time>
</trkpt>
<trkpt lat="45.426688000" lon="4.500813200">
  <ele>740.352539</ele>
<time>2008-08-09T08:38:06Z</time>
</trkpt>
<trkpt lat="45.427135800" lon="4.501276800">
  <ele>740.352539</ele>
<time>2008-08-09T08:38:16Z</time>
</trkpt>
<trkpt lat="45.427365800" lon="4.501658400">
  <ele>742.755859</ele>
<time>2008-08-09T08:41:48Z</time>
</trkpt>
<trkpt lat="45.427826300" lon="4.502610600">
  <ele>742.755859</ele>
<time>2008-08-09T08:44:38Z</time>
</trkpt>
<trkpt lat="45.428054500" lon="4.502889600">
  <ele>741.794434</ele>
<time>2008-08-09T08:44:44Z</time>
</trkpt>
<trkpt lat="45.429367300" lon="4.504372600">
  <ele>732.181397</ele>
<time>2008-08-09T08:45:07Z</time>
</trkpt>
<trkpt lat="45.430142800" lon="4.505163600">
  <ele>721.606690</ele>
<time>2008-08-09T08:45:19Z</time>
</trkpt>
<trkpt lat="45.430204900" lon="4.505403000">
  <ele>720.645508</ele>
<time>2008-08-09T08:45:23Z</time>
</trkpt>
<trkpt lat="45.430010700" lon="4.505790300">
  <ele>714.396728</ele>
<time>2008-08-09T08:45:29Z</time>
</trkpt>
<trkpt lat="45.430010000" lon="4.505914900">
  <ele>710.551514</ele>
<time>2008-08-09T08:45:34Z</time>
</trkpt>
<trkpt lat="45.430513700" lon="4.505820600">
  <ele>706.225586</ele>
<time>2008-08-09T08:45:42Z</time>
</trkpt>
<trkpt lat="45.430634000" lon="4.505488900">
  <ele>703.822510</ele>
<time>2008-08-09T08:45:53Z</time>
</trkpt>
<trkpt lat="45.430811200" lon="4.505789900">
  <ele>699.015625</ele>
<time>2008-08-09T08:46:26Z</time>
</trkpt>
<trkpt lat="45.430747800" lon="4.506079700">
  <ele>696.612549</ele>
<time>2008-08-09T08:46:33Z</time>
</trkpt>
<trkpt lat="45.430403000" lon="4.506491500">
  <ele>692.286621</ele>
<time>2008-08-09T08:46:38Z</time>
</trkpt>
<trkpt lat="45.428834300" lon="4.507233800">
  <ele>680.270019</ele>
<time>2008-08-09T08:47:00Z</time>
</trkpt>
<trkpt lat="45.428595500" lon="4.507656100">
  <ele>680.270019</ele>
<time>2008-08-09T08:47:07Z</time>
</trkpt>
<trkpt lat="45.427789100" lon="4.508604300">
  <ele>671.618164</ele>
<time>2008-08-09T08:47:18Z</time>
</trkpt>
<trkpt lat="45.427234400" lon="4.508686100">
  <ele>667.292236</ele>
<time>2008-08-09T08:47:24Z</time>
</trkpt>
<trkpt lat="45.425439000" lon="4.507849200">
  <ele>646.624023</ele>
<time>2008-08-09T08:47:46Z</time>
</trkpt>
<trkpt lat="45.423633100" lon="4.508773700">
  <ele>635.568603</ele>
<time>2008-08-09T08:48:11Z</time>
</trkpt>
<trkpt lat="45.423412600" lon="4.508510600">
  <ele>633.645996</ele>
<time>2008-08-09T08:48:17Z</time>
</trkpt>
<trkpt lat="45.423216800" lon="4.507497300">
  <ele>634.607422</ele>
<time>2008-08-09T08:48:30Z</time>
</trkpt>
<trkpt lat="45.421953100" lon="4.506675200">
  <ele>641.336670</ele>
<time>2008-08-09T08:49:10Z</time>
</trkpt>
<trkpt lat="45.421495100" lon="4.507332100">
  <ele>649.988525</ele>
<time>2008-08-09T08:49:43Z</time>
</trkpt>
<trkpt lat="45.420744200" lon="4.507374100">
  <ele>658.640381</ele>
<time>2008-08-09T08:50:26Z</time>
</trkpt>
<trkpt lat="45.419237600" lon="4.506528700">
  <ele>670.176269</ele>
<time>2008-08-09T08:51:56Z</time>
</trkpt>
<trkpt lat="45.417210600" lon="4.506743200">
  <ele>686.999268</ele>
<time>2008-08-09T08:53:22Z</time>
</trkpt>
<trkpt lat="45.416453400" lon="4.506376800">
  <ele>696.131836</ele>
<time>2008-08-09T08:53:56Z</time>
</trkpt>
<trkpt lat="45.415381600" lon="4.505348500">
  <ele>701.419190</ele>
<time>2008-08-09T08:54:40Z</time>
</trkpt>
<trkpt lat="45.415235700" lon="4.504111600">
  <ele>695.170410</ele>
<time>2008-08-09T08:55:41Z</time>
</trkpt>
<trkpt lat="45.415428900" lon="4.501432900">
  <ele>677.386231</ele>
<time>2008-08-09T08:56:02Z</time>
</trkpt>
<trkpt lat="45.415266900" lon="4.500956300">
  <ele>678.347412</ele>
<time>2008-08-09T08:56:07Z</time>
</trkpt>
<trkpt lat="45.414085000" lon="4.499037800">
  <ele>678.828125</ele>
<time>2008-08-09T08:56:43Z</time>
</trkpt>
<trkpt lat="45.413703100" lon="4.498540100">
  <ele>678.828125</ele>
<time>2008-08-09T08:56:55Z</time>
</trkpt>
<trkpt lat="45.413455100" lon="4.498390600">
  <ele>680.270019</ele>
<time>2008-08-09T08:57:00Z</time>
</trkpt>
<trkpt lat="45.413216500" lon="4.499194700">
  <ele>690.844482</ele>
<time>2008-08-09T08:57:36Z</time>
</trkpt>
<trkpt lat="45.412870900" lon="4.499879500">
  <ele>695.170410</ele>
<time>2008-08-09T08:57:56Z</time>
</trkpt>
<trkpt lat="45.411077200" lon="4.500759200">
  <ele>720.164795</ele>
<time>2008-08-09T08:59:38Z</time>
</trkpt>
<trkpt lat="45.410499500" lon="4.500911900">
  <ele>719.203613</ele>
<time>2008-08-09T08:59:57Z</time>
</trkpt>
<trkpt lat="45.409216500" lon="4.499812600">
  <ele>711.032227</ele>
<time>2008-08-09T09:00:21Z</time>
</trkpt>
<trkpt lat="45.408132400" lon="4.499498700">
  <ele>711.993652</ele>
<time>2008-08-09T09:00:40Z</time>
</trkpt>
<trkpt lat="45.407927400" lon="4.499352600">
  <ele>711.032227</ele>
<time>2008-08-09T09:00:44Z</time>
</trkpt>
<trkpt lat="45.406945800" lon="4.498185100">
  <ele>710.551514</ele>
<time>2008-08-09T09:01:06Z</time>
</trkpt>
<trkpt lat="45.406201900" lon="4.497924900">
  <ele>713.435547</ele>
<time>2008-08-09T09:01:58Z</time>
</trkpt>
<trkpt lat="45.405646400" lon="4.497579800">
  <ele>714.396728</ele>
<time>2008-08-09T09:02:10Z</time>
</trkpt>
<trkpt lat="45.405036600" lon="4.496893600">
  <ele>714.877441</ele>
<time>2008-08-09T09:02:24Z</time>
</trkpt>
<trkpt lat="45.404788300" lon="4.496380300">
  <ele>716.800293</ele>
<time>2008-08-09T09:02:32Z</time>
</trkpt>
<trkpt lat="45.404658700" lon="4.495092000">
  <ele>713.435547</ele>
<time>2008-08-09T09:02:47Z</time>
</trkpt>
<trkpt lat="45.404776900" lon="4.491555600">
  <ele>713.435547</ele>
<time>2008-08-09T09:03:25Z</time>
</trkpt>
<trkpt lat="45.404966600" lon="4.490409000">
  <ele>713.916016</ele>
<time>2008-08-09T09:03:38Z</time>
</trkpt>
<trkpt lat="45.405142300" lon="4.488956000">
  <ele>712.474121</ele>
<time>2008-08-09T09:03:55Z</time>
</trkpt>
<trkpt lat="45.404773900" lon="4.488368300">
  <ele>715.358154</ele>
<time>2008-08-09T09:04:07Z</time>
</trkpt>
<trkpt lat="45.404479900" lon="4.488279200">
  <ele>719.203613</ele>
<time>2008-08-09T09:04:14Z</time>
</trkpt>
<trkpt lat="45.404216300" lon="4.488806000">
  <ele>721.126221</ele>
<time>2008-08-09T09:04:26Z</time>
</trkpt>
<trkpt lat="45.403250700" lon="4.490651800">
  <ele>728.335938</ele>
<time>2008-08-09T09:05:04Z</time>
</trkpt>
<trkpt lat="45.402780000" lon="4.490347600">
  <ele>730.258545</ele>
<time>2008-08-09T09:05:15Z</time>
</trkpt>
<trkpt lat="45.401962100" lon="4.488182400">
  <ele>739.871826</ele>
<time>2008-08-09T09:06:05Z</time>
</trkpt>
<trkpt lat="45.400775500" lon="4.486881600">
  <ele>749.004394</ele>
<time>2008-08-09T09:06:48Z</time>
</trkpt>
<trkpt lat="45.400634000" lon="4.486881000">
  <ele>750.927002</ele>
<time>2008-08-09T09:06:53Z</time>
</trkpt>
<trkpt lat="45.400675600" lon="4.486708700">
  <ele>752.368897</ele>
<time>2008-08-09T09:07:00Z</time>
</trkpt>
<trkpt lat="45.400912000" lon="4.486804900">
  <ele>757.175537</ele>
<time>2008-08-09T09:07:10Z</time>
</trkpt>
<trkpt lat="45.401205000" lon="4.486949100">
  <ele>758.136963</ele>
<time>2008-08-09T09:07:21Z</time>
</trkpt>
<trkpt lat="45.402607200" lon="4.488080200">
  <ele>766.788818</ele>
<time>2008-08-09T09:08:09Z</time>
</trkpt>
<trkpt lat="45.402986000" lon="4.487894500">
  <ele>769.672852</ele>
<time>2008-08-09T09:08:24Z</time>
</trkpt>
<trkpt lat="45.403129600" lon="4.487595900">
  <ele>775.921143</ele>
<time>2008-08-09T09:08:37Z</time>
</trkpt>
<trkpt lat="45.402743600" lon="4.487317700">
  <ele>780.728027</ele>
<time>2008-08-09T09:08:59Z</time>
</trkpt>
<trkpt lat="45.402902300" lon="4.486764800">
  <ele>789.379639</ele>
<time>2008-08-09T09:09:25Z</time>
</trkpt>
<trkpt lat="45.402484700" lon="4.486541500">
  <ele>798.992920</ele>
<time>2008-08-09T09:09:52Z</time>
</trkpt>
<trkpt lat="45.401568500" lon="4.485539400">
  <ele>818.699951</ele>
<time>2008-08-09T09:11:09Z</time>
</trkpt>
<trkpt lat="45.400830200" lon="4.484841400">
  <ele>824.948486</ele>
<time>2008-08-09T09:11:50Z</time>
</trkpt>
<trkpt lat="45.399331000" lon="4.482845600">
  <ele>850.904053</ele>
<time>2008-08-09T09:13:46Z</time>
</trkpt>
<trkpt lat="45.398871900" lon="4.482598700">
  <ele>856.191162</ele>
<time>2008-08-09T09:14:14Z</time>
</trkpt>
<trkpt lat="45.398568600" lon="4.482513800">
  <ele>857.633301</ele>
<time>2008-08-09T09:16:55Z</time>
</trkpt>
<trkpt lat="45.397784700" lon="4.482904800">
  <ele>872.052978</ele>
<time>2008-08-09T09:18:23Z</time>
</trkpt>
<trkpt lat="45.397321900" lon="4.482783600">
  <ele>878.301758</ele>
<time>2008-08-09T09:18:53Z</time>
</trkpt>
<trkpt lat="45.397044100" lon="4.482763200">
  <ele>878.301758</ele>
<time>2008-08-09T09:19:06Z</time>
</trkpt>
<trkpt lat="45.396804200" lon="4.483059200">
  <ele>880.224365</ele>
<time>2008-08-09T09:19:20Z</time>
</trkpt>
<trkpt lat="45.396547900" lon="4.483934600">
  <ele>889.837402</ele>
<time>2008-08-09T09:20:00Z</time>
</trkpt>
<trkpt lat="45.395673900" lon="4.484328200">
  <ele>908.583252</ele>
<time>2008-08-09T09:21:03Z</time>
</trkpt>
<trkpt lat="45.395183400" lon="4.484534900">
  <ele>916.754394</ele>
<time>2008-08-09T09:21:36Z</time>
</trkpt>
<trkpt lat="45.395029000" lon="4.484569800">
  <ele>918.677002</ele>
<time>2008-08-09T09:21:45Z</time>
</trkpt>
<trkpt lat="45.393940600" lon="4.484194000">
  <ele>939.345215</ele>
<time>2008-08-09T09:23:03Z</time>
</trkpt>
<trkpt lat="45.393484800" lon="4.484024100">
  <ele>945.593994</ele>
<time>2008-08-09T09:24:02Z</time>
</trkpt>
<trkpt lat="45.392924800" lon="4.483610800">
  <ele>958.571777</ele>
<time>2008-08-09T09:24:47Z</time>
</trkpt>
<trkpt lat="45.392486600" lon="4.483825800">
  <ele>970.107422</ele>
<time>2008-08-09T09:25:24Z</time>
</trkpt>
<trkpt lat="45.392323900" lon="4.483856900">
  <ele>972.030273</ele>
<time>2008-08-09T09:25:38Z</time>
</trkpt>
<trkpt lat="45.391241100" lon="4.483802000">
  <ele>991.256592</ele>
<time>2008-08-09T09:26:57Z</time>
</trkpt>
<trkpt lat="45.390930400" lon="4.484079800">
  <ele>997.505127</ele>
<time>2008-08-09T09:27:24Z</time>
</trkpt>
<trkpt lat="45.389947800" lon="4.484325600">
  <ele>1020.096191</ele>
<time>2008-08-09T09:28:41Z</time>
</trkpt>
<trkpt lat="45.389832700" lon="4.484361600">
  <ele>1022.018799</ele>
<time>2008-08-09T09:28:48Z</time>
</trkpt>
<trkpt lat="45.389957400" lon="4.483279200">
  <ele>1026.825439</ele>
<time>2008-08-09T09:29:27Z</time>
</trkpt>
<trkpt lat="45.389859200" lon="4.482782200">
  <ele>1029.709229</ele>
<time>2008-08-09T09:29:42Z</time>
</trkpt>
<trkpt lat="45.389637800" lon="4.482449700">
  <ele>1029.709229</ele>
<time>2008-08-09T09:29:55Z</time>
</trkpt>
<trkpt lat="45.388535700" lon="4.483807900">
  <ele>1034.996582</ele>
<time>2008-08-09T09:30:42Z</time>
</trkpt>
<trkpt lat="45.387688600" lon="4.484269900">
  <ele>1042.687256</ele>
<time>2008-08-09T09:31:19Z</time>
</trkpt>
<trkpt lat="45.386423800" lon="4.485373800">
  <ele>1064.316650</ele>
<time>2008-08-09T09:32:40Z</time>
</trkpt>
<trkpt lat="45.386100900" lon="4.485915600">
  <ele>1069.604248</ele>
<time>2008-08-09T09:33:06Z</time>
</trkpt>
<trkpt lat="45.385671500" lon="4.486420600">
  <ele>1073.449463</ele>
<time>2008-08-09T09:33:33Z</time>
</trkpt>
<trkpt lat="45.385402200" lon="4.486645900">
  <ele>1074.410645</ele>
<time>2008-08-09T09:33:45Z</time>
</trkpt>
<trkpt lat="45.384922400" lon="4.487482200">
  <ele>1079.697754</ele>
<time>2008-08-09T09:34:10Z</time>
</trkpt>
<trkpt lat="45.384312900" lon="4.488574400">
  <ele>1080.178467</ele>
<time>2008-08-09T09:34:39Z</time>
</trkpt>
<trkpt lat="45.383393300" lon="4.489728600">
  <ele>1082.101074</ele>
<time>2008-08-09T09:35:08Z</time>
</trkpt>
<trkpt lat="45.381517900" lon="4.491227000">
  <ele>1094.117676</ele>
<time>2008-08-09T09:36:06Z</time>
</trkpt>
<trkpt lat="45.380000500" lon="4.492078300">
  <ele>1100.846924</ele>
<time>2008-08-09T09:36:52Z</time>
</trkpt>
<trkpt lat="45.379272300" lon="4.492803900">
  <ele>1106.614746</ele>
<time>2008-08-09T09:37:24Z</time>
</trkpt>
<trkpt lat="45.378181400" lon="4.494609100">
  <ele>1121.515137</ele>
<time>2008-08-09T09:38:48Z</time>
</trkpt>
<trkpt lat="45.377161500" lon="4.496004600">
  <ele>1124.879883</ele>
<time>2008-08-09T09:39:40Z</time>
</trkpt>
<trkpt lat="45.376098500" lon="4.499709800">
  <ele>1142.183594</ele>
<time>2008-08-09T09:41:18Z</time>
</trkpt>
<trkpt lat="45.375096500" lon="4.501165100">
  <ele>1148.912842</ele>
<time>2008-08-09T09:42:12Z</time>
</trkpt>
<trkpt lat="45.374409300" lon="4.502545300">
  <ele>1156.603271</ele>
<time>2008-08-09T09:42:50Z</time>
</trkpt>
<trkpt lat="45.374018300" lon="4.503178800">
  <ele>1158.045410</ele>
<time>2008-08-09T09:43:07Z</time>
</trkpt>
<trkpt lat="45.373878500" lon="4.503214400">
  <ele>1158.045410</ele>
<time>2008-08-09T09:43:14Z</time>
</trkpt>
<trkpt lat="45.372720900" lon="4.505202900">
  <ele>1164.774658</ele>
<time>2008-08-09T09:43:58Z</time>
</trkpt>
<trkpt lat="45.372127400" lon="4.506668400">
  <ele>1173.906982</ele>
<time>2008-08-09T09:44:38Z</time>
</trkpt>
<trkpt lat="45.371990800" lon="4.507292000">
  <ele>1175.348877</ele>
<time>2008-08-09T09:44:53Z</time>
</trkpt>
<trkpt lat="45.371892200" lon="4.510405300">
  <ele>1170.061768</ele>
<time>2008-08-09T09:45:33Z</time>
</trkpt>
<trkpt lat="45.371678700" lon="4.511294300">
  <ele>1164.293945</ele>
<time>2008-08-09T09:45:43Z</time>
</trkpt>
<trkpt lat="45.370807300" lon="4.512745500">
  <ele>1156.122559</ele>
<time>2008-08-09T09:45:58Z</time>
</trkpt>
<trkpt lat="45.370331700" lon="4.512933600">


Partager le fichier


Télécharger Sorbiers - Le bessat (grosse descente).gpx


Télécharger Sorbiers - Le bessat (grosse descente).gpx